sensor_id;sensor_type;location;lat;lon;timestamp;P1;durP1;ratioP1;P2;durP2;ratioP2
16286;SDS011;8251;53.568;10.018;2022-08-19T00:00:10;11.97;;;9.17;;
16286;SDS011;8251;53.568;10.018;2022-08-19T00:02:39;13.03;;;11.13;;
16286;SDS011;8251;53.568;10.018;2022-08-19T00:05:06;12.97;;;8.77;;
16286;SDS011;8251;53.568;10.018;2022-08-19T00:07:34;11.13;;;8.50;;
16286;SDS011;8251;53.568;10.018;2022-08-19T00:10:02;12.40;;;8.77;;
16286;SDS011;8251;53.568;10.018;2022-08-19T00:12:30;13.23;;;9.13;;
16286;SDS011;8251;53.568;10.018;2022-08-19T00:14:58;13.17;;;7.93;;
16286;SDS011;8251;53.568;10.018;2022-08-19T00:17:26;13.00;;;8.30;;
16286;SDS011;8251;53.568;10.018;2022-08-19T00:19:53;12.57;;;7.73;;
16286;SDS011;8251;53.568;10.018;2022-08-19T00:22:20;13.73;;;8.60;;
16286;SDS011;8251;53.568;10.018;2022-08-19T00:24:47;16.67;;;12.57;;
16286;SDS011;8251;53.568;10.018;2022-08-19T00:27:14;19.03;;;14.00;;
16286;SDS011;8251;53.568;10.018;2022-08-19T00:29:41;18.70;;;14.13;;
16286;SDS011;8251;53.568;10.018;2022-08-19T00:32:08;17.70;;;13.17;;
16286;SDS011;8251;53.568;10.018;2022-08-19T00:34:37;18.50;;;13.07;;
16286;SDS011;8251;53.568;10.018;2022-08-19T00:37:04;18.30;;;14.03;;
16286;SDS011;8251;53.568;10.018;2022-08-19T00:39:31;20.40;;;14.00;;
16286;SDS011;8251;53.568;10.018;2022-08-19T00:41:58;21.63;;;14.07;;
16286;SDS011;8251;53.568;10.018;2022-08-19T00:44:26;19.97;;;13.93;;
16286;SDS011;8251;53.568;10.018;2022-08-19T00:46:56;19.37;;;14.17;;
16286;SDS011;8251;53.568;10.018;2022-08-19T00:49:25;23.00;;;13.60;;
16286;SDS011;8251;53.568;10.018;2022-08-19T00:51:59;20.40;;;13.97;;
16286;SDS011;8251;53.568;10.018;2022-08-19T00:54:30;20.20;;;14.57;;
16286;SDS011;8251;53.568;10.018;2022-08-19T00:56:58;21.20;;;14.53;;
16286;SDS011;8251;53.568;10.018;2022-08-19T00:59:26;19.67;;;12.97;;
16286;SDS011;8251;53.568;10.018;2022-08-19T01:01:54;23.33;;;14.63;;
16286;SDS011;8251;53.568;10.018;2022-08-19T01:04:21;19.03;;;14.77;;
16286;SDS011;8251;53.568;10.018;2022-08-19T01:06:48;27.83;;;16.33;;
16286;SDS011;8251;53.568;10.018;2022-08-19T01:09:16;21.57;;;15.63;;
16286;SDS011;8251;53.568;10.018;2022-08-19T01:11:43;27.13;;;15.63;;
16286;SDS011;8251;53.568;10.018;2022-08-19T01:14:11;26.87;;;14.20;;
16286;SDS011;8251;53.568;10.018;2022-08-19T01:16:39;24.87;;;15.93;;
16286;SDS011;8251;53.568;10.018;2022-08-19T01:19:09;25.63;;;15.63;;
16286;SDS011;8251;53.568;10.018;2022-08-19T01:21:45;20.73;;;14.83;;
16286;SDS011;8251;53.568;10.018;2022-08-19T01:24:18;21.47;;;15.03;;
16286;SDS011;8251;53.568;10.018;2022-08-19T01:26:46;22.77;;;15.33;;
16286;SDS011;8251;53.568;10.018;2022-08-19T01:29:13;23.03;;;14.10;;
16286;SDS011;8251;53.568;10.018;2022-08-19T01:31:40;17.03;;;12.87;;
16286;SDS011;8251;53.568;10.018;2022-08-19T01:34:07;18.00;;;13.43;;
16286;SDS011;8251;53.568;10.018;2022-08-19T01:36:35;17.27;;;11.90;;
16286;SDS011;8251;53.568;10.018;2022-08-19T01:39:08;21.33;;;13.03;;
16286;SDS011;8251;53.568;10.018;2022-08-19T01:41:39;18.20;;;12.67;;
16286;SDS011;8251;53.568;10.018;2022-08-19T01:44:07;17.80;;;12.40;;
16286;SDS011;8251;53.568;10.018;2022-08-19T01:46:35;16.73;;;13.17;;
16286;SDS011;8251;53.568;10.018;2022-08-19T01:49:02;17.10;;;13.27;;
16286;SDS011;8251;53.568;10.018;2022-08-19T01:51:30;17.03;;;12.43;;
16286;SDS011;8251;53.568;10.018;2022-08-19T01:53:57;19.13;;;13.20;;
16286;SDS011;8251;53.568;10.018;2022-08-19T01:56:24;17.90;;;12.70;;
16286;SDS011;8251;53.568;10.018;2022-08-19T01:58:53;15.53;;;12.90;;
16286;SDS011;8251;53.568;10.018;2022-08-19T02:01:23;17.40;;;12.97;;
16286;SDS011;8251;53.568;10.018;2022-08-19T02:03:50;18.30;;;13.90;;
16286;SDS011;8251;53.568;10.018;2022-08-19T02:06:19;18.50;;;14.10;;
16286;SDS011;8251;53.568;10.018;2022-08-19T02:08:46;18.33;;;12.70;;
16286;SDS011;8251;53.568;10.018;2022-08-19T02:11:19;20.67;;;14.03;;
16286;SDS011;8251;53.568;10.018;2022-08-19T02:13:46;18.37;;;12.93;;
16286;SDS011;8251;53.568;10.018;2022-08-19T02:16:16;23.07;;;15.50;;
16286;SDS011;8251;53.568;10.018;2022-08-19T02:18:43;18.00;;;13.20;;
16286;SDS011;8251;53.568;10.018;2022-08-19T02:21:12;23.67;;;13.97;;
16286;SDS011;8251;53.568;10.018;2022-08-19T02:23:39;22.93;;;13.47;;
16286;SDS011;8251;53.568;10.018;2022-08-19T02:26:06;16.63;;;12.80;;
16286;SDS011;8251;53.568;10.018;2022-08-19T02:28:33;18.47;;;12.70;;
16286;SDS011;8251;53.568;10.018;2022-08-19T02:31:01;19.87;;;12.93;;
16286;SDS011;8251;53.568;10.018;2022-08-19T02:33:30;21.53;;;12.60;;
16286;SDS011;8251;53.568;10.018;2022-08-19T02:35:57;18.20;;;11.93;;
16286;SDS011;8251;53.568;10.018;2022-08-19T02:38:24;19.10;;;13.47;;
16286;SDS011;8251;53.568;10.018;2022-08-19T02:40:50;18.70;;;11.77;;
16286;SDS011;8251;53.568;10.018;2022-08-19T02:43:18;21.63;;;12.63;;
16286;SDS011;8251;53.568;10.018;2022-08-19T02:45:46;17.73;;;10.70;;
16286;SDS011;8251;53.568;10.018;2022-08-19T02:48:14;22.53;;;13.70;;
16286;SDS011;8251;53.568;10.018;2022-08-19T02:50:43;19.60;;;12.03;;
16286;SDS011;8251;53.568;10.018;2022-08-19T02:53:11;21.57;;;12.57;;
16286;SDS011;8251;53.568;10.018;2022-08-19T02:55:42;19.07;;;12.97;;
16286;SDS011;8251;53.568;10.018;2022-08-19T02:58:10;20.93;;;12.77;;
16286;SDS011;8251;53.568;10.018;2022-08-19T03:00:42;22.17;;;13.10;;
16286;SDS011;8251;53.568;10.018;2022-08-19T03:03:11;17.97;;;13.10;;
16286;SDS011;8251;53.568;10.018;2022-08-19T03:05:39;23.07;;;13.47;;
16286;SDS011;8251;53.568;10.018;2022-08-19T03:08:07;20.80;;;12.63;;
16286;SDS011;8251;53.568;10.018;2022-08-19T03:10:40;21.87;;;13.37;;
16286;SDS011;8251;53.568;10.018;2022-08-19T03:13:09;24.97;;;12.90;;
16286;SDS011;8251;53.568;10.018;2022-08-19T03:15:41;22.03;;;13.03;;
16286;SDS011;8251;53.568;10.018;2022-08-19T03:18:10;26.00;;;14.17;;
16286;SDS011;8251;53.568;10.018;2022-08-19T03:20:41;28.63;;;13.73;;
16286;SDS011;8251;53.568;10.018;2022-08-19T03:23:10;30.70;;;14.57;;
16286;SDS011;8251;53.568;10.018;2022-08-19T03:25:39;29.00;;;14.37;;
16286;SDS011;8251;53.568;10.018;2022-08-19T03:28:08;27.43;;;14.13;;
16286;SDS011;8251;53.568;10.018;2022-08-19T03:30:37;28.30;;;14.47;;
16286;SDS011;8251;53.568;10.018;2022-08-19T03:33:05;28.90;;;15.20;;
16286;SDS011;8251;53.568;10.018;2022-08-19T03:35:33;33.20;;;16.43;;
16286;SDS011;8251;53.568;10.018;2022-08-19T03:38:01;32.30;;;15.80;;
16286;SDS011;8251;53.568;10.018;2022-08-19T03:40:30;34.83;;;16.57;;
16286;SDS011;8251;53.568;10.018;2022-08-19T03:42:57;39.30;;;16.70;;
16286;SDS011;8251;53.568;10.018;2022-08-19T03:45:24;33.67;;;15.90;;
16286;SDS011;8251;53.568;10.018;2022-08-19T03:47:51;31.37;;;16.10;;
16286;SDS011;8251;53.568;10.018;2022-08-19T03:50:18;35.77;;;16.03;;
16286;SDS011;8251;53.568;10.018;2022-08-19T03:52:47;33.50;;;15.07;;
16286;SDS011;8251;53.568;10.018;2022-08-19T03:55:16;31.57;;;14.43;;
16286;SDS011;8251;53.568;10.018;2022-08-19T03:57:45;25.63;;;13.57;;
16286;SDS011;8251;53.568;10.018;2022-08-19T04:00:14;23.77;;;12.77;;
16286;SDS011;8251;53.568;10.018;2022-08-19T04:02:41;25.57;;;12.10;;
16286;SDS011;8251;53.568;10.018;2022-08-19T04:05:08;23.87;;;12.57;;
16286;SDS011;8251;53.568;10.018;2022-08-19T04:07:36;25.60;;;14.07;;
16286;SDS011;8251;53.568;10.018;2022-08-19T04:10:03;26.20;;;12.40;;
16286;SDS011;8251;53.568;10.018;2022-08-19T04:12:31;24.37;;;12.83;;
16286;SDS011;8251;53.568;10.018;2022-08-19T04:14:59;23.20;;;12.43;;
16286;SDS011;8251;53.568;10.018;2022-08-19T04:17:26;25.13;;;12.50;;
16286;SDS011;8251;53.568;10.018;2022-08-19T04:19:53;25.37;;;13.50;;
16286;SDS011;8251;53.568;10.018;2022-08-19T04:22:20;33.03;;;14.23;;
16286;SDS011;8251;53.568;10.018;2022-08-19T04:24:47;36.57;;;14.00;;
16286;SDS011;8251;53.568;10.018;2022-08-19T04:27:13;29.93;;;14.13;;
16286;SDS011;8251;53.568;10.018;2022-08-19T04:29:41;28.93;;;14.20;;
16286;SDS011;8251;53.568;10.018;2022-08-19T04:32:10;23.30;;;13.97;;
16286;SDS011;8251;53.568;10.018;2022-08-19T04:34:39;33.60;;;15.30;;
16286;SDS011;8251;53.568;10.018;2022-08-19T04:37:07;32.00;;;15.47;;
16286;SDS011;8251;53.568;10.018;2022-08-19T04:39:36;33.63;;;14.33;;
16286;SDS011;8251;53.568;10.018;2022-08-19T04:42:21;33.50;;;15.07;;
16286;SDS011;8251;53.568;10.018;2022-08-19T04:45:07;31.20;;;14.67;;
16286;SDS011;8251;53.568;10.018;2022-08-19T04:47:38;34.37;;;15.07;;
16286;SDS011;8251;53.568;10.018;2022-08-19T04:50:06;27.13;;;14.70;;
16286;SDS011;8251;53.568;10.018;2022-08-19T04:52:36;26.40;;;16.57;;
16286;SDS011;8251;53.568;10.018;2022-08-19T04:55:07;41.20;;;16.00;;
16286;SDS011;8251;53.568;10.018;2022-08-19T04:57:35;42.77;;;17.57;;
16286;SDS011;8251;53.568;10.018;2022-08-19T05:00:04;35.40;;;17.73;;
16286;SDS011;8251;53.568;10.018;2022-08-19T05:02:32;31.30;;;17.90;;
16286;SDS011;8251;53.568;10.018;2022-08-19T05:05:01;38.13;;;18.17;;
16286;SDS011;8251;53.568;10.018;2022-08-19T05:07:28;30.67;;;18.27;;
16286;SDS011;8251;53.568;10.018;2022-08-19T05:09:57;37.90;;;18.80;;
16286;SDS011;8251;53.568;10.018;2022-08-19T05:12:24;35.37;;;17.67;;
16286;SDS011;8251;53.568;10.018;2022-08-19T05:14:53;37.23;;;17.93;;
16286;SDS011;8251;53.568;10.018;2022-08-19T05:17:22;39.97;;;17.60;;
16286;SDS011;8251;53.568;10.018;2022-08-19T05:19:49;34.83;;;16.83;;
16286;SDS011;8251;53.568;10.018;2022-08-19T05:22:35;34.43;;;17.07;;
16286;SDS011;8251;53.568;10.018;2022-08-19T05:25:04;30.80;;;15.57;;
16286;SDS011;8251;53.568;10.018;2022-08-19T05:27:32;34.40;;;17.17;;
16286;SDS011;8251;53.568;10.018;2022-08-19T05:29:59;31.63;;;18.40;;
16286;SDS011;8251;53.568;10.018;2022-08-19T05:32:27;35.40;;;17.83;;
16286;SDS011;8251;53.568;10.018;2022-08-19T05:34:54;34.07;;;17.53;;
16286;SDS011;8251;53.568;10.018;2022-08-19T05:37:21;39.10;;;17.07;;
16286;SDS011;8251;53.568;10.018;2022-08-19T05:39:50;38.57;;;17.80;;
16286;SDS011;8251;53.568;10.018;2022-08-19T05:42:16;35.17;;;17.97;;
16286;SDS011;8251;53.568;10.018;2022-08-19T05:44:45;33.43;;;16.27;;
16286;SDS011;8251;53.568;10.018;2022-08-19T05:47:14;23.23;;;14.10;;
16286;SDS011;8251;53.568;10.018;2022-08-19T05:49:42;28.50;;;14.57;;
16286;SDS011;8251;53.568;10.018;2022-08-19T05:52:11;33.27;;;17.97;;
16286;SDS011;8251;53.568;10.018;2022-08-19T05:54:40;36.60;;;18.13;;
16286;SDS011;8251;53.568;10.018;2022-08-19T05:57:09;32.47;;;17.63;;
16286;SDS011;8251;53.568;10.018;2022-08-19T05:59:36;34.60;;;18.40;;
16286;SDS011;8251;53.568;10.018;2022-08-19T06:02:04;29.87;;;18.60;;
16286;SDS011;8251;53.568;10.018;2022-08-19T06:04:32;31.70;;;18.40;;
16286;SDS011;8251;53.568;10.018;2022-08-19T06:06:59;33.20;;;18.67;;
16286;SDS011;8251;53.568;10.018;2022-08-19T06:09:27;29.60;;;16.83;;
16286;SDS011;8251;53.568;10.018;2022-08-19T06:11:55;27.70;;;17.47;;
16286;SDS011;8251;53.568;10.018;2022-08-19T06:14:27;32.63;;;18.90;;
16286;SDS011;8251;53.568;10.018;2022-08-19T06:16:56;32.40;;;17.73;;
16286;SDS011;8251;53.568;10.018;2022-08-19T06:19:27;27.70;;;17.30;;
16286;SDS011;8251;53.568;10.018;2022-08-19T06:21:57;32.10;;;17.77;;
16286;SDS011;8251;53.568;10.018;2022-08-19T06:24:26;30.47;;;17.67;;
16286;SDS011;8251;53.568;10.018;2022-08-19T06:26:55;28.20;;;17.10;;
16286;SDS011;8251;53.568;10.018;2022-08-19T06:29:24;31.37;;;18.23;;
16286;SDS011;8251;53.568;10.018;2022-08-19T06:31:55;37.77;;;20.10;;
16286;SDS011;8251;53.568;10.018;2022-08-19T06:34:23;33.23;;;18.33;;
16286;SDS011;8251;53.568;10.018;2022-08-19T06:36:52;36.03;;;19.40;;
16286;SDS011;8251;53.568;10.018;2022-08-19T06:39:21;33.83;;;18.57;;
16286;SDS011;8251;53.568;10.018;2022-08-19T06:41:51;33.97;;;20.20;;
16286;SDS011;8251;53.568;10.018;2022-08-19T06:44:21;36.87;;;20.57;;
16286;SDS011;8251;53.568;10.018;2022-08-19T06:46:52;31.17;;;18.87;;
16286;SDS011;8251;53.568;10.018;2022-08-19T06:49:19;34.57;;;18.20;;
16286;SDS011;8251;53.568;10.018;2022-08-19T06:51:47;36.93;;;20.57;;
16286;SDS011;8251;53.568;10.018;2022-08-19T06:54:15;36.60;;;20.07;;
16286;SDS011;8251;53.568;10.018;2022-08-19T06:56:43;35.90;;;19.73;;
16286;SDS011;8251;53.568;10.018;2022-08-19T06:59:12;33.90;;;21.17;;
16286;SDS011;8251;53.568;10.018;2022-08-19T07:01:40;34.40;;;19.77;;
16286;SDS011;8251;53.568;10.018;2022-08-19T07:04:23;34.33;;;19.30;;
16286;SDS011;8251;53.568;10.018;2022-08-19T07:06:56;37.63;;;20.27;;
16286;SDS011;8251;53.568;10.018;2022-08-19T07:09:24;37.43;;;18.27;;
16286;SDS011;8251;53.568;10.018;2022-08-19T07:11:52;30.63;;;19.13;;
16286;SDS011;8251;53.568;10.018;2022-08-19T07:14:21;33.90;;;18.67;;
16286;SDS011;8251;53.568;10.018;2022-08-19T07:16:50;29.87;;;16.47;;
16286;SDS011;8251;53.568;10.018;2022-08-19T07:19:22;29.27;;;16.90;;
16286;SDS011;8251;53.568;10.018;2022-08-19T07:21:52;26.70;;;15.93;;
16286;SDS011;8251;53.568;10.018;2022-08-19T07:24:20;26.13;;;14.50;;
16286;SDS011;8251;53.568;10.018;2022-08-19T07:26:50;22.53;;;14.20;;
16286;SDS011;8251;53.568;10.018;2022-08-19T07:29:19;23.10;;;12.77;;
16286;SDS011;8251;53.568;10.018;2022-08-19T07:31:48;20.30;;;13.67;;
16286;SDS011;8251;53.568;10.018;2022-08-19T07:34:17;23.40;;;14.30;;
16286;SDS011;8251;53.568;10.018;2022-08-19T07:36:53;20.17;;;13.43;;
16286;SDS011;8251;53.568;10.018;2022-08-19T07:39:22;21.60;;;14.93;;
16286;SDS011;8251;53.568;10.018;2022-08-19T07:41:51;25.33;;;14.37;;
16286;SDS011;8251;53.568;10.018;2022-08-19T07:44:18;18.63;;;13.30;;
16286;SDS011;8251;53.568;10.018;2022-08-19T07:46:49;21.73;;;12.23;;
16286;SDS011;8251;53.568;10.018;2022-08-19T07:49:26;17.03;;;11.23;;
16286;SDS011;8251;53.568;10.018;2022-08-19T07:51:55;18.17;;;12.60;;
16286;SDS011;8251;53.568;10.018;2022-08-19T07:54:26;15.97;;;11.57;;
16286;SDS011;8251;53.568;10.018;2022-08-19T07:56:56;25.77;;;13.20;;
16286;SDS011;8251;53.568;10.018;2022-08-19T07:59:24;13.23;;;10.07;;
16286;SDS011;8251;53.568;10.018;2022-08-19T08:01:51;14.33;;;10.00;;
16286;SDS011;8251;53.568;10.018;2022-08-19T08:04:18;13.80;;;9.60;;
16286;SDS011;8251;53.568;10.018;2022-08-19T08:07:06;16.47;;;9.77;;
16286;SDS011;8251;53.568;10.018;2022-08-19T08:09:52;16.60;;;11.37;;
16286;SDS011;8251;53.568;10.018;2022-08-19T08:12:21;28.10;;;17.27;;
16286;SDS011;8251;53.568;10.018;2022-08-19T08:14:58;19.97;;;13.47;;
16286;SDS011;8251;53.568;10.018;2022-08-19T08:17:29;14.23;;;10.73;;
16286;SDS011;8251;53.568;10.018;2022-08-19T08:19:57;15.03;;;10.00;;
16286;SDS011;8251;53.568;10.018;2022-08-19T08:22:26;12.03;;;10.20;;
16286;SDS011;8251;53.568;10.018;2022-08-19T08:25:13;16.90;;;11.03;;
16286;SDS011;8251;53.568;10.018;2022-08-19T08:27:44;14.40;;;9.60;;
16286;SDS011;8251;53.568;10.018;2022-08-19T08:30:12;18.40;;;12.10;;
16286;SDS011;8251;53.568;10.018;2022-08-19T08:32:42;18.30;;;11.30;;
16286;SDS011;8251;53.568;10.018;2022-08-19T08:35:09;19.27;;;11.80;;
16286;SDS011;8251;53.568;10.018;2022-08-19T08:37:39;16.00;;;11.33;;
16286;SDS011;8251;53.568;10.018;2022-08-19T08:40:09;16.83;;;12.10;;
16286;SDS011;8251;53.568;10.018;2022-08-19T08:42:49;18.07;;;12.93;;
16286;SDS011;8251;53.568;10.018;2022-08-19T08:45:25;17.97;;;12.83;;
16286;SDS011;8251;53.568;10.018;2022-08-19T08:47:53;18.37;;;13.07;;
16286;SDS011;8251;53.568;10.018;2022-08-19T08:50:25;18.30;;;13.87;;
16286;SDS011;8251;53.568;10.018;2022-08-19T08:56:20;21.23;;;13.13;;
16286;SDS011;8251;53.568;10.018;2022-08-19T08:58:49;21.93;;;14.80;;
16286;SDS011;8251;53.568;10.018;2022-08-19T09:01:21;20.90;;;13.63;;
16286;SDS011;8251;53.568;10.018;2022-08-19T09:03:49;19.73;;;14.03;;
16286;SDS011;8251;53.568;10.018;2022-08-19T09:06:23;21.37;;;11.57;;
16286;SDS011;8251;53.568;10.018;2022-08-19T09:08:59;18.97;;;13.27;;
16286;SDS011;8251;53.568;10.018;2022-08-19T09:11:34;26.43;;;12.67;;
16286;SDS011;8251;53.568;10.018;2022-08-19T09:14:13;20.70;;;14.83;;
16286;SDS011;8251;53.568;10.018;2022-08-19T09:16:49;26.30;;;13.33;;
16286;SDS011;8251;53.568;10.018;2022-08-19T09:19:17;23.00;;;14.93;;
16286;SDS011;8251;53.568;10.018;2022-08-19T09:21:44;27.17;;;15.13;;
16286;SDS011;8251;53.568;10.018;2022-08-19T09:24:11;21.47;;;13.97;;
16286;SDS011;8251;53.568;10.018;2022-08-19T09:26:39;21.33;;;13.67;;
16286;SDS011;8251;53.568;10.018;2022-08-19T09:29:08;25.17;;;15.07;;
16286;SDS011;8251;53.568;10.018;2022-08-19T09:31:36;21.50;;;14.60;;
16286;SDS011;8251;53.568;10.018;2022-08-19T09:34:03;20.77;;;14.27;;
16286;SDS011;8251;53.568;10.018;2022-08-19T09:36:31;25.07;;;14.43;;
16286;SDS011;8251;53.568;10.018;2022-08-19T09:39:01;19.83;;;14.40;;
16286;SDS011;8251;53.568;10.018;2022-08-19T09:41:28;30.90;;;14.67;;
16286;SDS011;8251;53.568;10.018;2022-08-19T09:43:57;23.87;;;13.07;;
16286;SDS011;8251;53.568;10.018;2022-08-19T09:46:25;21.30;;;12.87;;
16286;SDS011;8251;53.568;10.018;2022-08-19T09:48:59;16.23;;;12.67;;
16286;SDS011;8251;53.568;10.018;2022-08-19T09:51:26;15.43;;;11.93;;
16286;SDS011;8251;53.568;10.018;2022-08-19T09:53:55;17.43;;;12.77;;
16286;SDS011;8251;53.568;10.018;2022-08-19T09:56:26;19.57;;;11.27;;
16286;SDS011;8251;53.568;10.018;2022-08-19T09:58:53;16.30;;;10.30;;
16286;SDS011;8251;53.568;10.018;2022-08-19T10:01:23;14.60;;;10.77;;
16286;SDS011;8251;53.568;10.018;2022-08-19T10:03:53;21.63;;;13.77;;
16286;SDS011;8251;53.568;10.018;2022-08-19T10:06:21;12.13;;;10.73;;
16286;SDS011;8251;53.568;10.018;2022-08-19T10:08:50;15.23;;;11.20;;
16286;SDS011;8251;53.568;10.018;2022-08-19T10:11:17;21.93;;;13.37;;
16286;SDS011;8251;53.568;10.018;2022-08-19T10:13:46;19.10;;;12.83;;
16286;SDS011;8251;53.568;10.018;2022-08-19T10:16:19;19.23;;;13.57;;
16286;SDS011;8251;53.568;10.018;2022-08-19T10:18:49;23.40;;;13.90;;
16286;SDS011;8251;53.568;10.018;2022-08-19T10:21:18;15.60;;;11.43;;
16286;SDS011;8251;53.568;10.018;2022-08-19T10:23:47;17.23;;;11.30;;
16286;SDS011;8251;53.568;10.018;2022-08-19T10:26:15;19.97;;;12.43;;
16286;SDS011;8251;53.568;10.018;2022-08-19T10:28:44;22.90;;;14.20;;
16286;SDS011;8251;53.568;10.018;2022-08-19T10:31:11;20.57;;;12.50;;
16286;SDS011;8251;53.568;10.018;2022-08-19T10:33:40;23.30;;;13.83;;
16286;SDS011;8251;53.568;10.018;2022-08-19T10:36:18;21.50;;;13.57;;
16286;SDS011;8251;53.568;10.018;2022-08-19T10:38:54;20.43;;;12.87;;
16286;SDS011;8251;53.568;10.018;2022-08-19T10:41:29;19.30;;;13.87;;
16286;SDS011;8251;53.568;10.018;2022-08-19T10:43:59;22.03;;;16.10;;
16286;SDS011;8251;53.568;10.018;2022-08-19T10:46:29;15.50;;;13.37;;
16286;SDS011;8251;53.568;10.018;2022-08-19T10:48:57;21.10;;;12.60;;
16286;SDS011;8251;53.568;10.018;2022-08-19T10:51:26;19.47;;;12.97;;
16286;SDS011;8251;53.568;10.018;2022-08-19T10:54:12;19.20;;;14.37;;
16286;SDS011;8251;53.568;10.018;2022-08-19T10:56:39;24.70;;;13.50;;
16286;SDS011;8251;53.568;10.018;2022-08-19T10:59:18;22.40;;;14.37;;
16286;SDS011;8251;53.568;10.018;2022-08-19T11:01:46;23.60;;;14.60;;
16286;SDS011;8251;53.568;10.018;2022-08-19T11:04:14;15.87;;;12.73;;
16286;SDS011;8251;53.568;10.018;2022-08-19T11:06:44;20.87;;;13.97;;
16286;SDS011;8251;53.568;10.018;2022-08-19T11:09:12;19.00;;;13.70;;
16286;SDS011;8251;53.568;10.018;2022-08-19T11:11:43;22.83;;;14.20;;
16286;SDS011;8251;53.568;10.018;2022-08-19T11:14:16;15.80;;;12.90;;
16286;SDS011;8251;53.568;10.018;2022-08-19T11:16:45;24.73;;;14.25;;
16286;SDS011;8251;53.568;10.018;2022-08-19T11:19:13;27.80;;;14.47;;
16286;SDS011;8251;53.568;10.018;2022-08-19T11:21:44;21.92;;;14.27;;
16286;SDS011;8251;53.568;10.018;2022-08-19T11:24:13;18.97;;;15.40;;
16286;SDS011;8251;53.568;10.018;2022-08-19T11:26:42;23.08;;;15.13;;
16286;SDS011;8251;53.568;10.018;2022-08-19T11:29:11;19.05;;;15.13;;
16286;SDS011;8251;53.568;10.018;2022-08-19T11:31:39;20.98;;;16.10;;
16286;SDS011;8251;53.568;10.018;2022-08-19T11:34:08;21.50;;;15.65;;
16286;SDS011;8251;53.568;10.018;2022-08-19T11:36:38;28.63;;;16.42;;
16286;SDS011;8251;53.568;10.018;2022-08-19T11:39:09;18.98;;;14.93;;
16286;SDS011;8251;53.568;10.018;2022-08-19T11:41:38;21.55;;;13.52;;
16286;SDS011;8251;53.568;10.018;2022-08-19T11:44:07;16.88;;;14.68;;
16286;SDS011;8251;53.568;10.018;2022-08-19T11:46:35;22.05;;;16.38;;
16286;SDS011;8251;53.568;10.018;2022-08-19T11:49:04;15.63;;;12.73;;
16286;SDS011;8251;53.568;10.018;2022-08-19T11:51:32;15.15;;;13.65;;
16286;SDS011;8251;53.568;10.018;2022-08-19T11:54:00;16.13;;;12.27;;
16286;SDS011;8251;53.568;10.018;2022-08-19T11:56:29;14.15;;;10.30;;
16286;SDS011;8251;53.568;10.018;2022-08-19T11:58:56;19.10;;;14.75;;
16286;SDS011;8251;53.568;10.018;2022-08-19T12:01:23;19.13;;;14.73;;
16286;SDS011;8251;53.568;10.018;2022-08-19T12:03:52;22.88;;;14.05;;
16286;SDS011;8251;53.568;10.018;2022-08-19T12:06:22;17.02;;;13.20;;
16286;SDS011;8251;53.568;10.018;2022-08-19T12:08:53;20.05;;;12.43;;
16286;SDS011;8251;53.568;10.018;2022-08-19T12:11:21;16.73;;;14.45;;
16286;SDS011;8251;53.568;10.018;2022-08-19T12:13:50;16.23;;;14.52;;
16286;SDS011;8251;53.568;10.018;2022-08-19T12:16:19;15.95;;;12.13;;
16286;SDS011;8251;53.568;10.018;2022-08-19T12:18:49;14.77;;;13.18;;
16286;SDS011;8251;53.568;10.018;2022-08-19T12:21:17;15.18;;;12.77;;
16286;SDS011;8251;53.568;10.018;2022-08-19T12:23:48;13.95;;;12.55;;
16286;SDS011;8251;53.568;10.018;2022-08-19T12:26:17;15.02;;;12.15;;
16286;SDS011;8251;53.568;10.018;2022-08-19T12:28:44;14.18;;;11.18;;
16286;SDS011;8251;53.568;10.018;2022-08-19T12:31:14;20.25;;;14.73;;
16286;SDS011;8251;53.568;10.018;2022-08-19T12:33:41;11.30;;;8.30;;
16286;SDS011;8251;53.568;10.018;2022-08-19T12:36:10;12.65;;;8.07;;
16286;SDS011;8251;53.568;10.018;2022-08-19T12:38:39;14.63;;;10.48;;
16286;SDS011;8251;53.568;10.018;2022-08-19T12:41:07;13.50;;;10.90;;
16286;SDS011;8251;53.568;10.018;2022-08-19T12:43:37;9.60;;;6.72;;
16286;SDS011;8251;53.568;10.018;2022-08-19T12:46:04;12.25;;;10.98;;
16286;SDS011;8251;53.568;10.018;2022-08-19T12:48:34;11.02;;;8.38;;
16286;SDS011;8251;53.568;10.018;2022-08-19T12:51:05;12.02;;;10.43;;
16286;SDS011;8251;53.568;10.018;2022-08-19T12:53:37;8.70;;;7.03;;
16286;SDS011;8251;53.568;10.018;2022-08-19T12:56:06;13.18;;;10.18;;
16286;SDS011;8251;53.568;10.018;2022-08-19T12:58:34;10.60;;;7.22;;
16286;SDS011;8251;53.568;10.018;2022-08-19T13:01:06;9.95;;;7.18;;
16286;SDS011;8251;53.568;10.018;2022-08-19T13:03:36;12.32;;;7.75;;
16286;SDS011;8251;53.568;10.018;2022-08-19T13:06:03;10.88;;;8.98;;
16286;SDS011;8251;53.568;10.018;2022-08-19T13:08:31;10.52;;;7.32;;
16286;SDS011;8251;53.568;10.018;2022-08-19T13:11:06;10.43;;;8.52;;
16286;SDS011;8251;53.568;10.018;2022-08-19T13:13:35;10.48;;;7.07;;
16286;SDS011;8251;53.568;10.018;2022-08-19T13:16:06;14.63;;;10.88;;
16286;SDS011;8251;53.568;10.018;2022-08-19T13:18:36;9.35;;;8.02;;
16286;SDS011;8251;53.568;10.018;2022-08-19T13:21:03;11.70;;;9.68;;
16286;SDS011;8251;53.568;10.018;2022-08-19T13:23:31;8.02;;;6.60;;
16286;SDS011;8251;53.568;10.018;2022-08-19T13:25:58;9.15;;;7.20;;
16286;SDS011;8251;53.568;10.018;2022-08-19T13:28:27;15.95;;;8.90;;
16286;SDS011;8251;53.568;10.018;2022-08-19T13:31:18;11.57;;;8.27;;
16286;SDS011;8251;53.568;10.018;2022-08-19T13:34:06;8.73;;;5.80;;
16286;SDS011;8251;53.568;10.018;2022-08-19T13:36:35;10.68;;;6.90;;
16286;SDS011;8251;53.568;10.018;2022-08-19T13:39:03;10.63;;;7.97;;
16286;SDS011;8251;53.568;10.018;2022-08-19T13:41:32;8.38;;;6.88;;
16286;SDS011;8251;53.568;10.018;2022-08-19T13:43:59;12.57;;;8.60;;
16286;SDS011;8251;53.568;10.018;2022-08-19T13:46:27;11.02;;;9.48;;
16286;SDS011;8251;53.568;10.018;2022-08-19T13:48:56;11.73;;;9.48;;
16286;SDS011;8251;53.568;10.018;2022-08-19T13:51:25;8.93;;;7.15;;
16286;SDS011;8251;53.568;10.018;2022-08-19T13:53:52;8.65;;;7.60;;
16286;SDS011;8251;53.568;10.018;2022-08-19T13:56:20;9.07;;;7.63;;
16286;SDS011;8251;53.568;10.018;2022-08-19T13:58:47;12.63;;;9.20;;
16286;SDS011;8251;53.568;10.018;2022-08-19T14:01:18;8.85;;;7.95;;
16286;SDS011;8251;53.568;10.018;2022-08-19T14:03:46;10.05;;;8.73;;
16286;SDS011;8251;53.568;10.018;2022-08-19T14:06:13;14.00;;;12.52;;
16286;SDS011;8251;53.568;10.018;2022-08-19T14:08:43;11.82;;;10.63;;
16286;SDS011;8251;53.568;10.018;2022-08-19T14:11:11;8.68;;;6.80;;
16286;SDS011;8251;53.568;10.018;2022-08-19T14:13:39;14.05;;;11.65;;
16286;SDS011;8251;53.568;10.018;2022-08-19T14:16:07;10.23;;;6.60;;
16286;SDS011;8251;53.568;10.018;2022-08-19T14:18:34;12.82;;;11.70;;
16286;SDS011;8251;53.568;10.018;2022-08-19T14:21:02;10.25;;;9.25;;
16286;SDS011;8251;53.568;10.018;2022-08-19T14:23:29;12.07;;;8.52;;
16286;SDS011;8251;53.568;10.018;2022-08-19T14:26:06;17.52;;;7.95;;
16286;SDS011;8251;53.568;10.018;2022-08-19T14:28:38;14.82;;;8.73;;
16286;SDS011;8251;53.568;10.018;2022-08-19T14:31:06;9.50;;;7.80;;
16286;SDS011;8251;53.568;10.018;2022-08-19T14:33:34;9.25;;;6.97;;
16286;SDS011;8251;53.568;10.018;2022-08-19T14:36:02;11.23;;;9.00;;
16286;SDS011;8251;53.568;10.018;2022-08-19T14:38:30;12.23;;;9.63;;